• Join FlightAware (Why Join?)
  • Login
  • US Flag 
07:47PM EDT


 

Airport Tracker/Info


-or-


 

Live Flight TrackerFlight Track Log ✈ UAL4563 ✈ 26-Apr-2013 ✈ KCLE - KMHT

Flight Track Log - Related Links

Times and Time Zones

All times are in EDT time to prevent confusion due to time zone crossing. See the UAL4563 flight status page for this flight to view local times or setup timezone preferences in your user account.

Time Position Orientation Groundspeed Altitude Reporting Facility
EDT Latitude Longitude Course Direction KTS MPH feet Rate Location/Type
07:21PM 41.4194 -81.8375 26° Northeast 158 182 1,700  Level Cleveland Center
07:22PM 41.5117 -81.7783 26° Northeast 226 260 4,600 2,100 Climbing Cleveland Center
07:23PM 41.5728 -81.7294 31° Northeast 245 282 7,500 2,520 Climbing Cleveland Center
07:24PM 41.6275 -81.6664 41° Northeast 261 300 9,700 1,500 Climbing Cleveland Center
07:25PM 41.6950 -81.5869 41° Northeast 277 319 10,600 960 Climbing Cleveland Center
07:26PM 41.7686 -81.5019 41° Northeast 318 366 11,700 1,380 Climbing Cleveland Center
07:27PM 41.8361 -81.4108 45° Northeast 337 388 13,400 1,740 Climbing Cleveland Center
07:28PM 41.8597 -81.2828 76° East 338 389 15,200 1,800 Climbing Cleveland Center
07:29PM 41.8814 -81.1519 77° East 352 405 17,000 1,500 Climbing Cleveland Center
07:30PM 41.9008 -81.0239 78° East 352 405 18,300 1,500 Climbing Cleveland Center
07:31PM 41.9242 -80.8931 76° East 352 405 20,000 1,500 Climbing Cleveland Center
07:32PM 41.9431 -80.7647 79° East 358 412 21,400 1,260 Climbing Cleveland Center
07:33PM 41.9619 -80.6419 78° East 358 412 22,600 1,260 Climbing Cleveland Center
07:34PM 41.9850 -80.5022 77° East 375 432 24,000 1,380 Climbing Cleveland Center
07:35PM 42.0056 -80.3653 79° East 370 426 25,400 1,260 Climbing Cleveland Center
07:36PM 42.0283 -80.2253 78° East 375 432 26,600 780 Climbing Cleveland Center
07:37PM 42.0506 -80.0769 79° East 389 448 27,000 180 Climbing Cleveland Center
07:38PM 42.0728 -79.9203 79° East 415 478 27,000  Level Cleveland Center
07:39PM 42.0989 -79.7550 78° East 432 497 27,000  Level Cleveland Center
07:40PM 42.1225 -79.5839 79° East 444 511 27,000  Level Cleveland Center
07:41PM 42.1458 -79.4125 80° East 455 524 27,000 300 Level Cleveland Center
07:42PM 42.1731 -79.2383 78° East 461 531 27,700 960 Climbing Cleveland Center
07:43PM 42.1939 -79.0753 80° East 455 524 29,000 600 Climbing Cleveland Center
07:44PM 42.2186 -78.8897 80° East 450 518 29,000  Level Cleveland Center
07:45PM 42.2392 -78.7350 80° East 450 518 29,000  Level Cleveland Center
07:46PM 42.2611 -78.5603 80° East 456 525 29,000  Level Cleveland Center
07:47PM 42.2811 -78.3942 81° East 456 525 29,000  Level Cleveland Center
07:48PM 42.3008 -78.2333 81° East 445 512 29,000  Level Cleveland Center
07:49PM 42.3219 -78.0556 81° East 438 504 29,000  Level Cleveland Center
07:50PM 42.3414 -77.8975 80° East 432 497 29,000  Level Cleveland Center
07:51PM 42.3606 -77.7394 81° East 427 491 29,000  Level Cleveland Center
07:52PM 42.3794 -77.5839 81° East 427 491 29,000  Level Cleveland Center
07:55PM 42.4181 -77.2333 81° East 428 493 29,000  Level Boston Center
07:56PM 42.4350 -77.0742 82° East 428 493 29,000  Level Boston Center
07:57PM 42.4519 -76.9150 82° East 428 493 29,000  Level Boston Center
07:58PM 42.4683 -76.7583 82° East 428 493 29,000  Level Boston Center
07:59PM 42.4869 -76.5964 81° East 428 493 29,000  Level Boston Center
08:00PM 42.5050 -76.4369 81° East 428 493 29,000  Level Boston Center
08:01PM 42.5189 -76.2772 83° East 428 493 29,000  Level Boston Center
08:02PM 42.5367 -76.1175 81° East 428 493 29,000  Level Boston Center
08:03PM 42.5544 -75.9522 82° East 428 493 29,000  Level Boston Center
08:04PM 42.5678 -75.7922 83° East 428 493 29,000  Level Boston Center
08:05PM 42.5828 -75.6267 83° East 428 493 29,000  Level Boston Center
08:06PM 42.5997 -75.4697 82° East 428 493 29,000  Level Boston Center
08:07PM 42.6144 -75.3039 83° East 428 493 29,000  Level Boston Center
08:08PM 42.6308 -75.1408 82° East 428 493 29,000  Level Boston Center
08:09PM 42.6450 -74.9806 83° East 428 493 29,000  Level Boston Center
08:10PM 42.6614 -74.8006 83° East 428 493 29,000  Level Boston Center
08:11PM 42.6753 -74.6344 83° East 428 493 29,000  Level Boston Center
08:12PM 42.6906 -74.4739 83° East 428 493 29,000 -180 Level Boston Center
08:13PM 42.7039 -74.3106 84° East 428 493 28,700 -720 Descending Boston Center
08:14PM 42.7192 -74.1386 83° East 435 501 27,600 -1,080 Descending Boston Center
08:15PM 42.7319 -73.9664 84° East 447 514 26,600 -1,080 Descending Boston Center
08:16PM 42.7467 -73.7858 84° East 462 532 25,500 -1,080 Descending Boston Center
08:17PM 42.7550 -73.6108 86° East 467 537 24,500 -1,080 Descending Boston Center
08:18PM 42.7608 -73.4328 87° East 467 537 23,400 -1,140 Descending Boston Center
08:19PM 42.7683 -73.2603 87° East 462 532 22,300 -1,140 Descending Boston Center
08:20PM 42.7758 -73.0906 86° East 457 526 21,200 -1,380 Descending Boston Center
08:21PM 42.7828 -72.9125 87° East 457 526 19,600 -1,620 Descending Boston Center
08:22PM 42.7897 -72.7569 86° East 442 509 18,000 -1,440 Descending Boston Center
08:23PM 42.7964 -72.6014 87° East 421 484 16,800 -1,620 Descending Boston Center
08:24PM 42.8025 -72.4458 87° East 414 476 14,800 -2,340 Descending Boston Center
08:25PM 42.8089 -72.2958 87° East 408 470 12,200 -2,160 Descending Boston Center
08:26PM 42.8128 -72.1656 88° East 385 443 10,500 -1,140 Descending Boston Center
08:27PM 42.8122 -72.0353 90° East 329 379 10,000 -600 Descending Boston Center
08:28PM 42.8078 -71.9419 94° East 282 325 9,400 -1,020 Descending Boston Center
08:29PM 42.7989 -71.8344 96° East 261 300 8,000 -1,380 Descending Boston Center
08:30PM 42.7942 -71.7469 94° East 256 295 6,700 -1,560 Descending Boston Center
08:31PM 42.7872 -71.6422 95° East 256 295 4,900 -1,740 Descending Boston Center
08:32PM 42.7847 -71.5686 93° East 237 273 3,300 -900 Descending Boston Center
08:33PM 42.7800 -71.4897 95° East 201 231 3,100 -120 Descending Boston Center
08:34PM 42.7772 -71.4303 94° East 180 207 3,100 -540 Level Boston Center
08:35PM 42.8122 -71.3817 46° Northeast 153 176 2,100 -600 Descending Boston Center
08:36PM 42.8500 -71.3867 354° North 143 165 1,900 -540 Descending Boston Center
08:37PM 42.8897 -71.4086 338° Northwest 145 167 1,100 -720 Descending Boston Center
08:38PM 42.9169 -71.4281 332° Northwest 150 173 500 3,900 Descending Boston Center
08:39PM 42.9589 -71.4586 332° Northwest 150 173 9,000 8,460 Climbing Boston Center